createdAt,value
2023-03-06T00:00:01.711Z,994.7
2023-03-06T00:11:08.945Z,994.6
2023-03-06T00:16:05.481Z,994.5
2023-03-06T00:21:02.023Z,994.5
2023-03-06T00:25:58.567Z,994.5
2023-03-06T00:32:01.084Z,994.4
2023-03-06T00:36:57.567Z,994.4
2023-03-06T00:43:08.219Z,994.3
2023-03-06T00:48:04.778Z,994.2
2023-03-06T00:53:01.318Z,994.2
2023-03-06T00:57:57.837Z,994.2
2023-03-06T01:04:08.471Z,994.2
2023-03-06T01:18:58.238Z,993.9
2023-03-06T01:25:08.757Z,993.8
2023-03-06T01:28:51.149Z,993.8
2023-03-06T01:36:07.791Z,993.6
2023-03-06T01:41:04.295Z,993.4
2023-03-06T01:46:00.930Z,993.5
2023-03-06T01:52:11.507Z,993.5
2023-03-06T01:57:08.013Z,993.4
2023-03-06T02:02:04.617Z,993.2
2023-03-06T02:07:01.070Z,993.3
2023-03-06T02:11:57.600Z,993.3
2023-03-06T02:18:08.272Z,993.3
2023-03-06T02:23:04.817Z,993
2023-03-06T02:34:03.818Z,993.1
2023-03-06T02:39:08.528Z,993
2023-03-06T02:49:01.602Z,992.9
2023-03-06T03:00:08.830Z,992.8
2023-03-06T03:05:05.363Z,992.8
2023-03-06T03:10:01.931Z,992.8
2023-03-06T03:14:58.409Z,992.8
2023-03-06T03:21:09.048Z,992.7
2023-03-06T03:26:05.609Z,992.6
2023-03-06T03:29:48.029Z,992.7
2023-03-06T03:37:04.629Z,992.5
2023-03-06T03:42:01.175Z,992.7
2023-03-06T03:48:11.841Z,992.6
2023-03-06T03:53:08.332Z,992.5
2023-03-06T03:58:04.873Z,992.5
2023-03-06T04:03:01.401Z,992.4
2023-03-06T04:07:57.955Z,992.3
2023-03-06T04:14:08.599Z,992.3
2023-03-06T04:19:05.182Z,992.2
2023-03-06T04:24:01.695Z,992.2
2023-03-06T04:28:58.221Z,992.2
2023-03-06T04:35:00.695Z,992.2
2023-03-06T04:41:11.349Z,992.2
2023-03-06T04:46:07.918Z,992.2
2023-03-06T04:51:04.417Z,992.1
2023-03-06T05:00:57.616Z,992.1
2023-03-06T05:07:08.158Z,992.1
2023-03-06T05:12:04.644Z,991.9
2023-03-06T05:17:01.251Z,992.1
2023-03-06T05:21:57.725Z,992.1
2023-03-06T05:28:08.393Z,992.1
2023-03-06T05:30:36.664Z,992.1
2023-03-06T05:32:56.786Z,992.1
2023-03-06T05:39:07.603Z,992.1
2023-03-06T05:44:03.926Z,992
2023-03-06T05:49:00.465Z,992
2023-03-06T05:55:11.113Z,992
2023-03-06T06:00:07.660Z,992
2023-03-06T06:05:04.206Z,991.9
2023-03-06T06:10:03.600Z,992.1
2023-03-06T06:14:57.283Z,992
2023-03-06T06:21:07.923Z,992.1
2023-03-06T06:26:04.473Z,991.9
2023-03-06T06:37:03.447Z,992.1
2023-03-06T06:42:21.018Z,992.1
2023-03-06T06:47:24.387Z,992
2023-03-06T06:52:01.314Z,992.2
2023-03-06T06:56:57.810Z,992.3
2023-03-06T07:03:08.461Z,992.2
2023-03-06T07:13:01.519Z,992.5
2023-03-06T07:17:58.068Z,992.3
2023-03-06T07:24:08.763Z,992.3
2023-03-06T07:29:05.255Z,992.2
2023-03-06T07:35:19.596Z,992.2
2023-03-06T07:40:04.259Z,992.1
2023-03-06T07:45:00.792Z,992.2
2023-03-06T07:51:11.501Z,992.1
2023-03-06T07:56:08.003Z,992.2
2023-03-06T08:01:04.544Z,992.1
2023-03-06T08:06:01.069Z,992.2
2023-03-06T08:12:11.745Z,992.3
2023-03-06T08:17:08.256Z,992.4
2023-03-06T08:22:04.760Z,992.1
2023-03-06T08:27:01.324Z,992.4
2023-03-06T08:31:49.733Z,992.5
2023-03-06T08:38:00.312Z,992.5
2023-03-06T08:49:07.541Z,992.6
2023-03-06T08:54:04.037Z,992.6
2023-03-06T08:59:00.567Z,992.6
2023-03-06T09:05:11.247Z,992.7
2023-03-06T09:10:07.796Z,992.7
2023-03-06T09:15:04.336Z,992.6
2023-03-06T09:20:00.833Z,992.7
2023-03-06T09:26:11.521Z,992.7
2023-03-06T09:37:10.511Z,992.8
2023-03-06T09:42:07.147Z,992.7
2023-03-06T09:47:03.607Z,992.7
2023-03-06T09:52:00.153Z,992.7
2023-03-06T09:58:10.783Z,992.7
2023-03-06T10:08:03.842Z,992.8
2023-03-06T10:13:00.384Z,992.7
2023-03-06T10:24:07.580Z,992.7
2023-03-06T10:29:04.144Z,992.8
2023-03-06T10:34:00.632Z,992.7
2023-03-06T10:40:11.339Z,992.8
2023-03-06T10:43:53.747Z,992.7
2023-03-06T10:51:17.992Z,992.8
2023-03-06T10:55:01.281Z,992.8
2023-03-06T11:01:11.566Z,992.8
2023-03-06T11:06:08.142Z,992.7
2023-03-06T11:11:04.661Z,992.6
2023-03-06T11:16:01.207Z,992.7
2023-03-06T11:20:57.736Z,992.7
2023-03-06T11:27:08.381Z,992.7
2023-03-06T11:32:04.990Z,992.7
2023-03-06T11:37:01.439Z,992.7
2023-03-06T11:41:57.992Z,992.7
2023-03-06T11:48:08.682Z,992.7
2023-03-06T11:53:05.215Z,992.6
2023-03-06T11:59:07.669Z,992.6
2023-03-06T12:04:04.191Z,992.4
2023-03-06T12:13:57.281Z,992.4
2023-03-06T12:20:07.947Z,992.3
2023-03-06T12:25:04.479Z,992.1
2023-03-06T12:41:16.403Z,992.1
2023-03-06T12:43:44.664Z,992.1
2023-03-06T12:46:12.963Z,992.1
2023-03-06T12:48:41.178Z,992
2023-03-06T12:51:09.554Z,992.1
2023-03-06T12:53:37.728Z,992.1
2023-03-06T12:56:06.054Z,992.1
2023-03-06T12:58:34.234Z,992.1
2023-03-06T13:03:31.088Z,992.1
2023-03-06T13:06:07.228Z,992.1
2023-03-06T13:12:09.732Z,992.1
2023-03-06T13:17:06.268Z,992.1
2023-03-06T13:22:02.759Z,992.1
2023-03-06T13:33:10.001Z,992.1
2023-03-06T13:38:06.566Z,992.1
2023-03-06T13:43:03.063Z,992.1
2023-03-06T13:48:21.363Z,992
2023-03-06T13:54:10.337Z,991.9
2023-03-06T13:59:06.782Z,991.9
2023-03-06T14:04:03.299Z,991.9
2023-03-06T14:08:51.658Z,991.8
2023-03-06T14:15:02.308Z,991.8
2023-03-06T14:19:58.844Z,991.8
2023-03-06T14:26:09.536Z,991.7
2023-03-06T14:31:06.104Z,991.6
2023-03-06T14:36:02.635Z,991.6
2023-03-06T14:40:59.100Z,991.6
2023-03-06T14:47:09.751Z,991.6
2023-03-06T14:52:06.269Z,991.6
2023-03-06T14:57:02.857Z,991.6
2023-03-06T15:13:06.540Z,991.6
2023-03-06T15:18:03.111Z,991.6
2023-03-06T15:22:59.624Z,991.6
2023-03-06T15:29:10.700Z,991.5
2023-03-06T15:34:06.830Z,991.5
2023-03-06T15:39:03.336Z,991.5
2023-03-06T15:43:59.895Z,991.5
2023-03-06T15:50:10.595Z,991.6
2023-03-06T15:55:07.112Z,991.7
2023-03-06T16:00:03.669Z,991.6
2023-03-06T16:05:00.217Z,991.6
2023-03-06T16:09:56.696Z,991.6
2023-03-06T16:15:59.179Z,991.6
2023-03-06T16:22:09.812Z,991.7
2023-03-06T16:27:06.340Z,991.6
2023-03-06T16:32:02.940Z,991.7
2023-03-06T16:36:59.467Z,991.7
2023-03-06T16:43:10.142Z,991.7
2023-03-06T16:53:03.200Z,991.7
2023-03-06T16:57:59.711Z,991.8
2023-03-06T17:04:10.372Z,991.8
2023-03-06T17:09:06.873Z,991.8
2023-03-06T17:14:03.550Z,991.9
2023-03-06T17:19:00.044Z,991.9
2023-03-06T17:25:02.453Z,992
2023-03-06T17:36:09.656Z,992
2023-03-06T17:41:06.159Z,992.1
2023-03-06T17:46:02.739Z,992.1
2023-03-06T17:50:59.240Z,992.1
2023-03-06T17:57:09.856Z,992.1
2023-03-06T18:02:06.638Z,992.1
2023-03-06T18:07:02.948Z,992
2023-03-06T18:11:59.488Z,992
2023-03-06T18:18:10.128Z,992.1
2023-03-06T18:21:52.522Z,992.1
2023-03-06T18:29:09.193Z,992.1
2023-03-06T18:34:05.667Z,992
2023-03-06T18:39:02.247Z,992
2023-03-06T18:43:58.754Z,992
2023-03-06T18:50:09.439Z,992
2023-03-06T18:55:05.981Z,992
2023-03-06T19:00:02.503Z,992
2023-03-06T19:04:59.017Z,992
2023-03-06T19:12:03.404Z,991.9
2023-03-06T19:16:59.945Z,991.9
2023-03-06T19:33:03.667Z,991.8
2023-03-06T19:38:00.216Z,991.8
2023-03-06T19:42:56.711Z,991.7
2023-03-06T19:47:53.243Z,991.8
2023-03-06T19:54:03.922Z,991.6
2023-03-06T19:59:00.439Z,991.6
2023-03-06T20:03:56.995Z,991.5
2023-03-06T20:08:53.521Z,991.5
2023-03-06T20:15:04.182Z,991.4
2023-03-06T20:20:00.738Z,991.5
2023-03-06T20:23:43.070Z,991.4
2023-03-06T20:35:56.317Z,991.3
2023-03-06T20:40:52.817Z,991.3
2023-03-06T20:47:03.444Z,991.2
2023-03-06T20:51:59.998Z,991.3
2023-03-06T20:56:56.533Z,991.3
2023-03-06T21:08:03.698Z,991.2
2023-03-06T21:13:01.228Z,991.2
2023-03-06T21:17:56.769Z,991.2
2023-03-06T21:24:07.453Z,991.1
2023-03-06T21:28:55.817Z,991
2023-03-06T21:33:52.289Z,991
2023-03-06T21:40:02.979Z,991
2023-03-06T21:44:59.516Z,991
2023-03-06T21:49:56.043Z,991
2023-03-06T21:54:52.635Z,990.9
2023-03-06T21:59:49.122Z,990.8
2023-03-06T22:05:59.798Z,990.8
2023-03-06T22:10:56.345Z,990.8
2023-03-06T22:15:52.891Z,990.7
2023-03-06T22:22:03.498Z,990.6
2023-03-06T22:26:51.849Z,990.6
2023-03-06T22:33:02.480Z,990.5
2023-03-06T22:37:59.016Z,990.4
2023-03-06T22:42:55.600Z,990.4
2023-03-06T22:47:57.066Z,990.3
2023-03-06T22:54:02.809Z,990.4
2023-03-06T22:58:59.304Z,990.3
2023-03-06T23:03:55.862Z,990.3
2023-03-06T23:08:52.379Z,990.3
2023-03-06T23:15:03.065Z,990.2
2023-03-06T23:19:59.569Z,990.2
2023-03-06T23:24:56.149Z,990.2
2023-03-06T23:31:06.862Z,990.1
2023-03-06T23:36:03.336Z,990.2
2023-03-06T23:40:59.812Z,990.1
2023-03-06T23:45:56.400Z,990.1
2023-03-06T23:50:52.879Z,990.1
2023-03-06T23:57:03.565Z,990
